Guenther Schulte — VRGK8 — position and weather

sailwx.info

Track history (hours):
 
Tides and Currents Weather Stations Pressure Air Temp Water Temp Dewpoint Dewpoint Depression Visibility Wind Speed Wind Dir Waves Ship Positions

Guenther Schulte

Last reported at 2016-Aug-16 11:17 UTC. Time now 2016-Aug-24 16:16 UTC.
Position N 26°03' W 123°39'.
Warning: this ship's position is 8 days out of date.

Length 231 m; draft 10.8 m.

Type: Ship (hazmat cat C). MMSI: 477728800.

Date/timePositionNaut miles runAvg speedWind from/ knotsBaromVisibWave heightAir tempDewpointWater temp
2016-Aug-16 11:17N 26°03' W 123°39'3217.9
2016-Aug-16 09:30N 26°27' W 123°15'2518.0
2016-Aug-16 08:08N 26°46' W 122°56'1018.0
2016-Aug-16 07:33N 26°53' W 122°49'5518.3
2016-Aug-16 04:31N 27°35' W 122°08'1718.2
2016-Aug-16 03:33N 27°48' W 121°55'1818.1
2016-Aug-16 02:33N 28°01' W 121°41'1818.5
2016-Aug-16 01:33N 28°15' W 121°27'1818.2
2016-Aug-16 00:33N 28°29' W 121°13'1818.2
2016-Aug-15 23:33N 28°42' W 120°59'1818.4
2016-Aug-15 22:33N 28°56' W 120°45'1818.3
2016-Aug-15 21:33N 29°10' W 120°31'2118.2
2016-Aug-15 20:26N 29°25' W 120°16'1618.1
2016-Aug-15 19:32N 29°37' W 120°03'1818.1
2016-Aug-15 18:33N 29°50' W 119°49'1818.1
2016-Aug-15 17:33N 30°04' W 119°36'1818.0
2016-Aug-15 16:33N 30°17' W 119°22'1818.0
2016-Aug-15 15:33N 30°31' W 119°08'1818.1
2016-Aug-15 14:33N 30°44' W 118°54'1818.3
2016-Aug-15 13:33N 30°58' W 118°40'1818.3
2016-Aug-15 12:34N 31°13' W 118°28'1818.0
2016-Aug-15 11:33N 31°28' W 118°17'1818.0
2016-Aug-15 10:33N 31°44' W 118°06'1817.9
2016-Aug-15 09:33N 31°59' W 117°54'1817.9
2016-Aug-15 08:33N 32°14' W 117°44'1616.4
2016-Aug-15 07:33N 32°30' W 117°38'1616.3
2016-Aug-15 06:33N 32°45' W 117°46'3014.8
2016-Aug-15 04:33N 33°11' W 118°03'1211.9
2016-Aug-15 03:33N 33°22' W 118°08'1212.3
2016-Aug-15 02:33N 33°34' W 118°12'1110.5
2016-Aug-15 01:33N 33°44' W 118°13'2 2.2
2016-Aug-15 00:33N 33°46' W 118°14'0 0.0
2016-Aug-14 23:30N 33°46' W 118°14'0 0.0
2016-Aug-14 22:33N 33°46' W 118°14'0 0.0
2016-Aug-14 21:33N 33°46' W 118°14'0 0.0
2016-Aug-14 20:33N 33°46' W 118°14'0 0.0
2016-Aug-14 19:33N 33°46' W 118°14'0 0.0
2016-Aug-14 18:33N 33°46' W 118°14'0 0.0
2016-Aug-14 17:33N 33°46' W 118°14'0 0.0
2016-Aug-14 16:09N 33°46' W 118°14'0 0.0
2016-Aug-14 15:33N 33°46' W 118°14'0 0.0
2016-Aug-14 14:30N 33°46' W 118°14'0 0.0
2016-Aug-14 13:27N 33°46' W 118°14'0 0.0
2016-Aug-14 12:33N 33°46' W 118°14'0 0.0
2016-Aug-14 11:33N 33°46' W 118°14'0 0.0
2016-Aug-14 10:33N 33°46' W 118°14'0 0.0
2016-Aug-14 09:33N 33°46' W 118°14'0 0.0
2016-Aug-14 08:33N 33°46' W 118°14'0 0.0
2016-Aug-14 07:27N 33°46' W 118°14'0 0.0
2016-Aug-14 06:33N 33°46' W 118°14'0 0.0
2016-Aug-14 04:33N 33°46' W 118°14'0 0.0
2016-Aug-14 03:33N 33°46' W 118°14'0 0.0
2016-Aug-14 02:33N 33°46' W 118°14'0 0.0
2016-Aug-14 01:30N 33°46' W 118°14'0 0.0
2016-Aug-14 00:24N 33°46' W 118°14'0 0.0
2016-Aug-13 23:30N 33°46' W 118°14'0 0.0
2016-Aug-13 22:33N 33°46' W 118°14'0 0.0
2016-Aug-13 21:33N 33°46' W 118°14'0 0.0
2016-Aug-13 20:33N 33°46' W 118°14'0 0.0
2016-Aug-13 19:33N 33°46' W 118°14'0 0.0
2016-Aug-13 18:33N 33°46' W 118°14'0 0.0
2016-Aug-13 17:33N 33°46' W 118°14'0 0.0
2016-Aug-13 16:33N 33°46' W 118°14'0 0.0
2016-Aug-13 15:33N 33°46' W 118°14'0 0.0
2016-Aug-13 14:33N 33°46' W 118°14'0 0.0
2016-Aug-13 13:33N 33°46' W 118°14'0 0.5
2016-Aug-13 12:34N 33°46' W 118°13'5 5.0
2016-Aug-13 11:33N 33°42' W 118°11'7 7.4
2016-Aug-13 10:34N 33°36' W 118°16'1211.8
2016-Aug-13 09:34N 33°39' W 118°30'1212.0
2016-Aug-13 08:34N 33°45' W 118°43'1211.8
2016-Aug-13 07:34N 33°51' W 118°55'1312.9
2016-Aug-13 06:34N 33°58' W 119°08'1716.9
2016-Aug-13 05:33N 34°04' W 119°27'1717.1
2016-Aug-13 04:34N 34°09' W 119°47'1817.6
2016-Aug-13 03:33N 34°14' W 120°07'1818.1
2016-Aug-13 02:33N 34°19' W 120°28'2317.7
2016-Aug-13 01:17N 34°25' W 120°55'1216.3
2016-Aug-13 00:32N 34°34' W 121°04'1818.1
2016-Aug-12 23:33N 34°50' W 121°14'1818.0
2016-Aug-12 22:33N 35°06' W 121°24'1817.7
2016-Aug-12 21:33N 35°22' W 121°33'1817.8
2016-Aug-12 20:33N 35°38' W 121°43'1817.7
2016-Aug-12 19:33N 35°53' W 121°53'1717.4
2016-Aug-12 18:33N 36°09' W 122°02'1717.4
2016-Aug-12 17:33N 36°25' W 122°12'1818.0
2016-Aug-12 16:33N 36°41' W 122°22'1717.4
2016-Aug-12 15:34N 36°56' W 122°31'1717.3
2016-Aug-12 14:33N 37°12' W 122°40'1717.2
2016-Aug-12 13:34N 37°29' W 122°44'1616.5
2016-Aug-12 12:33N 37°45' W 122°41'1413.8
2016-Aug-12 11:33N 37°50' W 122°24'4 4.4
2016-Aug-12 10:33N 37°48' W 122°19'0 0.0
2016-Aug-12 09:33N 37°48' W 122°19'0 0.0
2016-Aug-12 08:33N 37°48' W 122°19'0 0.0
2016-Aug-12 07:33N 37°48' W 122°19'0 0.0
2016-Aug-12 06:33N 37°48' W 122°19'0 0.0
2016-Aug-12 05:33N 37°48' W 122°19'0 0.0
2016-Aug-12 04:33N 37°48' W 122°19'0 0.0
2016-Aug-12 03:33N 37°48' W 122°19'0 0.0
2016-Aug-12 02:33N 37°48' W 122°19'0 0.0
2016-Aug-12 01:33N 37°48' W 122°19'0 0.0
2016-Aug-12 00:33N 37°48' W 122°19'0 0.0
2016-Aug-11 23:33N 37°48' W 122°19'0 0.0
2016-Aug-11 22:33N 37°48' W 122°19'0 0.0
2016-Aug-11 21:33N 37°48' W 122°19'0 0.0
2016-Aug-11 20:33N 37°48' W 122°19'0 0.0
2016-Aug-11 19:33N 37°48' W 122°19'0 0.0
2016-Aug-11 18:33N 37°48' W 122°19'0 0.0
2016-Aug-11 17:33N 37°48' W 122°19'0 0.0
2016-Aug-11 16:33N 37°48' W 122°19'0 0.0
2016-Aug-11 15:30N 37°48' W 122°19'0 0.0
2016-Aug-11 14:33N 37°48' W 122°19'0 0.0
2016-Aug-11 13:33N 37°48' W 122°19'0 0.0
2016-Aug-11 12:33N 37°48' W 122°19'0 0.0
2016-Aug-11 11:33N 37°48' W 122°19'0 0.0
2016-Aug-11 10:33N 37°48' W 122°19'0 0.0
2016-Aug-11 09:33N 37°48' W 122°19'0 0.0
2016-Aug-11 08:33N 37°48' W 122°19'0 0.0
2016-Aug-11 07:33N 37°48' W 122°19'0 0.0
2016-Aug-11 06:33N 37°48' W 122°19'1 0.6
2016-Aug-11 05:34N 37°48' W 122°19'2 1.7
2016-Aug-11 04:33N 37°48' W 122°21'7 7.1
2016-Aug-11 03:34N 37°49' W 122°30'1312.6
2016-Aug-11 02:33N 37°42' W 122°44'1111.2
2016-Aug-11 01:33N 37°36' W 122°55'1211.6
2016-Aug-11 00:33N 37°29' W 123°07'1412.1
2016-Aug-10 23:25N 37°18' W 123°17'8 7.7
2016-Aug-10 22:20N 37°10' W 123°20'1 1.0
2016-Aug-10 21:31N 37°10' W 123°20'1 1.0
2016-Aug-10 20:31N 37°11' W 123°21'1 1.3
2016-Aug-10 19:32N 37°13' W 123°21'2 1.5
2016-Aug-10 18:33N 37°14' W 123°21'4 1.8
2016-Aug-10 16:33N 37°18' W 123°22'32 5.1
2016-Aug-10 10:17N 36°54' W 123°49'11 9.6
2016-Aug-10 09:09N 36°46' W 123°58'26 9.8
2016-Aug-10 06:31N 36°28' W 124°20'  
Track history (hours):
 
Tides and Currents Weather Stations Pressure Air Temp Water Temp Dewpoint Dewpoint Depression Visibility Wind Speed Wind Dir Waves Ship Positions

Guenther Schulte

Last reported at 2016-Aug-16 11:17 UTC. Time now 2016-Aug-24 16:16 UTC.
Position N 26°03' W 123°39'.
Warning: this ship's position is 8 days out of date.

Length 231 m; draft 10.8 m.

Type: Ship (hazmat cat C). MMSI: 477728800.

Date/timePositionNaut miles runAvg speedWind from/ knotsBaromVisibWave heightAir tempDewpointWater temp
2016-Aug-16 11:17N 26°03' W 123°39'3217.9
2016-Aug-16 09:30N 26°27' W 123°15'2518.0
2016-Aug-16 08:08N 26°46' W 122°56'1018.0
2016-Aug-16 07:33N 26°53' W 122°49'5518.3
2016-Aug-16 04:31N 27°35' W 122°08'1718.2
2016-Aug-16 03:33N 27°48' W 121°55'1818.1
2016-Aug-16 02:33N 28°01' W 121°41'1818.5
2016-Aug-16 01:33N 28°15' W 121°27'1818.2
2016-Aug-16 00:33N 28°29' W 121°13'1818.2
2016-Aug-15 23:33N 28°42' W 120°59'1818.4
2016-Aug-15 22:33N 28°56' W 120°45'1818.3
2016-Aug-15 21:33N 29°10' W 120°31'2118.2
2016-Aug-15 20:26N 29°25' W 120°16'1618.1
2016-Aug-15 19:32N 29°37' W 120°03'1818.1
2016-Aug-15 18:33N 29°50' W 119°49'1818.1
2016-Aug-15 17:33N 30°04' W 119°36'1818.0
2016-Aug-15 16:33N 30°17' W 119°22'1818.0
2016-Aug-15 15:33N 30°31' W 119°08'1818.1
2016-Aug-15 14:33N 30°44' W 118°54'1818.3
2016-Aug-15 13:33N 30°58' W 118°40'1818.3
2016-Aug-15 12:34N 31°13' W 118°28'1818.0
2016-Aug-15 11:33N 31°28' W 118°17'1818.0
2016-Aug-15 10:33N 31°44' W 118°06'1817.9
2016-Aug-15 09:33N 31°59' W 117°54'1817.9
2016-Aug-15 08:33N 32°14' W 117°44'1616.4
2016-Aug-15 07:33N 32°30' W 117°38'1616.3
2016-Aug-15 06:33N 32°45' W 117°46'3014.8
2016-Aug-15 04:33N 33°11' W 118°03'1211.9
2016-Aug-15 03:33N 33°22' W 118°08'1212.3
2016-Aug-15 02:33N 33°34' W 118°12'1110.5
2016-Aug-15 01:33N 33°44' W 118°13'2 2.2
2016-Aug-15 00:33N 33°46' W 118°14'0 0.0
2016-Aug-14 23:30N 33°46' W 118°14'0 0.0
2016-Aug-14 22:33N 33°46' W 118°14'0 0.0
2016-Aug-14 21:33N 33°46' W 118°14'0 0.0
2016-Aug-14 20:33N 33°46' W 118°14'0 0.0
2016-Aug-14 19:33N 33°46' W 118°14'0 0.0
2016-Aug-14 18:33N 33°46' W 118°14'0 0.0
2016-Aug-14 17:33N 33°46' W 118°14'0 0.0
2016-Aug-14 16:09N 33°46' W 118°14'0 0.0
2016-Aug-14 15:33N 33°46' W 118°14'0 0.0
2016-Aug-14 14:30N 33°46' W 118°14'0 0.0
2016-Aug-14 13:27N 33°46' W 118°14'0 0.0
2016-Aug-14 12:33N 33°46' W 118°14'0 0.0
2016-Aug-14 11:33N 33°46' W 118°14'0 0.0
2016-Aug-14 10:33N 33°46' W 118°14'0 0.0
2016-Aug-14 09:33N 33°46' W 118°14'0 0.0
2016-Aug-14 08:33N 33°46' W 118°14'0 0.0
2016-Aug-14 07:27N 33°46' W 118°14'0 0.0
2016-Aug-14 06:33N 33°46' W 118°14'0 0.0
2016-Aug-14 04:33N 33°46' W 118°14'0 0.0
2016-Aug-14 03:33N 33°46' W 118°14'0 0.0
2016-Aug-14 02:33N 33°46' W 118°14'0 0.0
2016-Aug-14 01:30N 33°46' W 118°14'0 0.0
2016-Aug-14 00:24N 33°46' W 118°14'0 0.0
2016-Aug-13 23:30N 33°46' W 118°14'0 0.0
2016-Aug-13 22:33N 33°46' W 118°14'0 0.0
2016-Aug-13 21:33N 33°46' W 118°14'0 0.0
2016-Aug-13 20:33N 33°46' W 118°14'0 0.0
2016-Aug-13 19:33N 33°46' W 118°14'0 0.0
2016-Aug-13 18:33N 33°46' W 118°14'0 0.0
2016-Aug-13 17:33N 33°46' W 118°14'0 0.0
2016-Aug-13 16:33N 33°46' W 118°14'0 0.0
2016-Aug-13 15:33N 33°46' W 118°14'0 0.0
2016-Aug-13 14:33N 33°46' W 118°14'0 0.0
2016-Aug-13 13:33N 33°46' W 118°14'0 0.5
2016-Aug-13 12:34N 33°46' W 118°13'5 5.0
2016-Aug-13 11:33N 33°42' W 118°11'7 7.4
2016-Aug-13 10:34N 33°36' W 118°16'1211.8
2016-Aug-13 09:34N 33°39' W 118°30'1212.0
2016-Aug-13 08:34N 33°45' W 118°43'1211.8
2016-Aug-13 07:34N 33°51' W 118°55'1312.9
2016-Aug-13 06:34N 33°58' W 119°08'1716.9
2016-Aug-13 05:33N 34°04' W 119°27'1717.1
2016-Aug-13 04:34N 34°09' W 119°47'1817.6
2016-Aug-13 03:33N 34°14' W 120°07'1818.1
2016-Aug-13 02:33N 34°19' W 120°28'2317.7
2016-Aug-13 01:17N 34°25' W 120°55'1216.3
2016-Aug-13 00:32N 34°34' W 121°04'1818.1
2016-Aug-12 23:33N 34°50' W 121°14'1818.0
2016-Aug-12 22:33N 35°06' W 121°24'1817.7
2016-Aug-12 21:33N 35°22' W 121°33'1817.8
2016-Aug-12 20:33N 35°38' W 121°43'1817.7
2016-Aug-12 19:33N 35°53' W 121°53'1717.4
2016-Aug-12 18:33N 36°09' W 122°02'1717.4
2016-Aug-12 17:33N 36°25' W 122°12'1818.0
2016-Aug-12 16:33N 36°41' W 122°22'1717.4
2016-Aug-12 15:34N 36°56' W 122°31'1717.3
2016-Aug-12 14:33N 37°12' W 122°40'1717.2
2016-Aug-12 13:34N 37°29' W 122°44'1616.5
2016-Aug-12 12:33N 37°45' W 122°41'1413.8
2016-Aug-12 11:33N 37°50' W 122°24'4 4.4
2016-Aug-12 10:33N 37°48' W 122°19'0 0.0
2016-Aug-12 09:33N 37°48' W 122°19'0 0.0
2016-Aug-12 08:33N 37°48' W 122°19'0 0.0
2016-Aug-12 07:33N 37°48' W 122°19'0 0.0
2016-Aug-12 06:33N 37°48' W 122°19'0 0.0
2016-Aug-12 05:33N 37°48' W 122°19'0 0.0
2016-Aug-12 04:33N 37°48' W 122°19'0 0.0
2016-Aug-12 03:33N 37°48' W 122°19'0 0.0
2016-Aug-12 02:33N 37°48' W 122°19'0 0.0
2016-Aug-12 01:33N 37°48' W 122°19'0 0.0
2016-Aug-12 00:33N 37°48' W 122°19'0 0.0
2016-Aug-11 23:33N 37°48' W 122°19'0 0.0
2016-Aug-11 22:33N 37°48' W 122°19'0 0.0
2016-Aug-11 21:33N 37°48' W 122°19'0 0.0
2016-Aug-11 20:33N 37°48' W 122°19'0 0.0
2016-Aug-11 19:33N 37°48' W 122°19'0 0.0
2016-Aug-11 18:33N 37°48' W 122°19'0 0.0
2016-Aug-11 17:33N 37°48' W 122°19'0 0.0
2016-Aug-11 16:33N 37°48' W 122°19'0 0.0
2016-Aug-11 15:30N 37°48' W 122°19'0 0.0
2016-Aug-11 14:33N 37°48' W 122°19'0 0.0
2016-Aug-11 13:33N 37°48' W 122°19'0 0.0
2016-Aug-11 12:33N 37°48' W 122°19'0 0.0
2016-Aug-11 11:33N 37°48' W 122°19'0 0.0
2016-Aug-11 10:33N 37°48' W 122°19'0 0.0
2016-Aug-11 09:33N 37°48' W 122°19'0 0.0
2016-Aug-11 08:33N 37°48' W 122°19'0 0.0
2016-Aug-11 07:33N 37°48' W 122°19'0 0.0
2016-Aug-11 06:33N 37°48' W 122°19'1 0.6
2016-Aug-11 05:34N 37°48' W 122°19'2 1.7
2016-Aug-11 04:33N 37°48' W 122°21'7 7.1
2016-Aug-11 03:34N 37°49' W 122°30'1312.6
2016-Aug-11 02:33N 37°42' W 122°44'1111.2
2016-Aug-11 01:33N 37°36' W 122°55'1211.6
2016-Aug-11 00:33N 37°29' W 123°07'1412.1
2016-Aug-10 23:25N 37°18' W 123°17'8 7.7
2016-Aug-10 22:20N 37°10' W 123°20'1 1.0
2016-Aug-10 21:31N 37°10' W 123°20'1 1.0
2016-Aug-10 20:31N 37°11' W 123°21'1 1.3
2016-Aug-10 19:32N 37°13' W 123°21'2 1.5
2016-Aug-10 18:33N 37°14' W 123°21'4 1.8
2016-Aug-10 16:33N 37°18' W 123°22'32 5.1
2016-Aug-10 10:17N 36°54' W 123°49'11 9.6
2016-Aug-10 09:09N 36°46' W 123°58'26 9.8
2016-Aug-10 06:31N 36°28' W 124°20'  

Dump ship's entire track history